sensor_id;sensor_type;location;lat;lon;timestamp;pressure;altitude;pressure_sealevel;temperature;humidity
22755;BME280;11544;42.020;23.094;2023-04-22T00:02:04;96785.81;;;11.28;69.91
22755;BME280;11544;42.020;23.094;2023-04-22T00:04:35;96789.91;;;11.71;67.89
22755;BME280;11544;42.020;23.094;2023-04-22T00:07:03;96785.81;;;11.84;67.07
22755;BME280;11544;42.020;23.094;2023-04-22T00:09:30;96784.88;;;11.66;67.06
22755;BME280;11544;42.020;23.094;2023-04-22T00:11:57;96789.78;;;11.74;67.32
22755;BME280;11544;42.020;23.094;2023-04-22T00:14:25;96790.69;;;11.54;67.44
22755;BME280;11544;42.020;23.094;2023-04-22T00:16:51;96787.09;;;11.38;68.74
22755;BME280;11544;42.020;23.094;2023-04-22T00:19:19;96785.41;;;11.75;67.37
22755;BME280;11544;42.020;23.094;2023-04-22T00:21:49;96794.34;;;11.50;67.13
22755;BME280;11544;42.020;23.094;2023-04-22T00:24:20;96788.69;;;11.40;68.91
22755;BME280;11544;42.020;23.094;2023-04-22T00:27:08;96794.91;;;11.76;67.20
22755;BME280;11544;42.020;23.094;2023-04-22T00:29:39;96791.63;;;11.53;68.87
22755;BME280;11544;42.020;23.094;2023-04-22T00:32:06;96786.09;;;11.59;68.33
22755;BME280;11544;42.020;23.094;2023-04-22T00:34:34;96800.28;;;11.35;68.71
22755;BME280;11544;42.020;23.094;2023-04-22T00:37:02;96789.22;;;11.68;68.23
22755;BME280;11544;42.020;23.094;2023-04-22T00:39:29;96799.44;;;11.53;68.18
22755;BME280;11544;42.020;23.094;2023-04-22T00:42:06;96794.91;;;11.38;68.42
22755;BME280;11544;42.020;23.094;2023-04-22T00:44:36;96799.09;;;11.42;69.18
22755;BME280;11544;42.020;23.094;2023-04-22T00:47:07;96798.66;;;11.51;69.90
22755;BME280;11544;42.020;23.094;2023-04-22T02:02:40;96820.38;;;11.52;73.38
22755;BME280;11544;42.020;23.094;2023-04-22T02:05:07;96826.78;;;11.26;73.91
22755;BME280;11544;42.020;23.094;2023-04-22T02:07:35;96832.34;;;11.18;76.13
22755;BME280;11544;42.020;23.094;2023-04-22T02:10:04;96830.06;;;11.10;76.64
22755;BME280;11544;42.020;23.094;2023-04-22T02:12:38;96835.09;;;10.94;77.78
22755;BME280;11544;42.020;23.094;2023-04-22T02:15:06;96832.53;;;11.53;76.14
22755;BME280;11544;42.020;23.094;2023-04-22T02:17:34;96834.59;;;11.65;74.24
22755;BME280;11544;42.020;23.094;2023-04-22T02:20:08;96833.41;;;11.33;74.76
22755;BME280;11544;42.020;23.094;2023-04-22T02:25:52;96827.63;;;11.26;77.79
22755;BME280;11544;42.020;23.094;2023-04-22T02:28:20;96821.09;;;11.55;75.50
22755;BME280;11544;42.020;23.094;2023-04-22T02:30:50;96827.00;;;11.40;75.23
22755;BME280;11544;42.020;23.094;2023-04-22T02:33:17;96827.44;;;11.50;76.69
22755;BME280;11544;42.020;23.094;2023-04-22T02:35:45;96836.16;;;11.30;78.47
22755;BME280;11544;42.020;23.094;2023-04-22T02:38:14;96836.88;;;11.52;76.84
22755;BME280;11544;42.020;23.094;2023-04-22T02:40:51;96837.69;;;11.73;76.74
22755;BME280;11544;42.020;23.094;2023-04-22T02:43:18;96834.50;;;11.85;76.27
22755;BME280;11544;42.020;23.094;2023-04-22T02:45:49;96844.78;;;11.32;78.13
22755;BME280;11544;42.020;23.094;2023-04-22T02:48:17;96853.25;;;11.37;79.09
22755;BME280;11544;42.020;23.094;2023-04-22T02:50:44;96844.31;;;11.61;78.45
22755;BME280;11544;42.020;23.094;2023-04-22T02:56:23;96850.69;;;11.35;79.51
22755;BME280;11544;42.020;23.094;2023-04-22T02:59:02;96855.44;;;11.46;78.84
22755;BME280;11544;42.020;23.094;2023-04-22T03:01:29;96849.63;;;11.20;79.22
22755;BME280;11544;42.020;23.094;2023-04-22T03:03:57;96855.63;;;11.02;81.16
22755;BME280;11544;42.020;23.094;2023-04-22T03:06:25;96850.41;;;10.61;83.42
22755;BME280;11544;42.020;23.094;2023-04-22T03:08:53;96855.94;;;11.15;83.81
22755;BME280;11544;42.020;23.094;2023-04-22T03:11:20;96857.63;;;11.16;81.11
22755;BME280;11544;42.020;23.094;2023-04-22T03:13:47;96861.88;;;10.98;82.42
22755;BME280;11544;42.020;23.094;2023-04-22T03:16:18;96863.03;;;10.91;83.32
22755;BME280;11544;42.020;23.094;2023-04-22T03:18:49;96862.41;;;10.86;84.71
22755;BME280;11544;42.020;23.094;2023-04-22T03:21:17;96862.91;;;10.73;85.39
22755;BME280;11544;42.020;23.094;2023-04-22T03:23:44;96852.09;;;11.23;82.86
22755;BME280;11544;42.020;23.094;2023-04-22T03:26:12;96857.31;;;11.03;82.94
22755;BME280;11544;42.020;23.094;2023-04-22T03:28:39;96864.22;;;10.63;84.99
22755;BME280;11544;42.020;23.094;2023-04-22T03:31:09;96861.88;;;10.77;86.19
22755;BME280;11544;42.020;23.094;2023-04-22T03:33:37;96867.22;;;11.15;84.46
22755;BME280;11544;42.020;23.094;2023-04-22T03:36:05;96860.34;;;10.94;84.37
22755;BME280;11544;42.020;23.094;2023-04-22T03:38:35;96864.78;;;11.31;82.65
22755;BME280;11544;42.020;23.094;2023-04-22T03:41:02;96870.28;;;10.84;83.20
22755;BME280;11544;42.020;23.094;2023-04-22T03:43:30;96869.56;;;10.80;83.67
22755;BME280;11544;42.020;23.094;2023-04-22T03:45:58;96874.50;;;11.48;81.82
22755;BME280;11544;42.020;23.094;2023-04-22T03:48:25;96863.94;;;11.70;79.30
22755;BME280;11544;42.020;23.094;2023-04-22T03:54:38;96882.22;;;10.90;84.81
22755;BME280;11544;42.020;23.094;2023-04-22T03:57:05;96883.44;;;11.42;82.90
22755;BME280;11544;42.020;23.094;2023-04-22T03:59:35;96877.41;;;11.61;79.71
22755;BME280;11544;42.020;23.094;2023-04-22T04:22:12;96901.84;;;11.19;82.47
22755;BME280;11544;42.020;23.094;2023-04-22T04:24:43;96909.63;;;11.20;83.42
22755;BME280;11544;42.020;23.094;2023-04-22T04:27:12;96919.38;;;10.95;88.05
22755;BME280;11544;42.020;23.094;2023-04-22T04:29:39;96917.47;;;10.78;90.51
22755;BME280;11544;42.020;23.094;2023-04-22T04:32:08;96915.19;;;11.13;89.78
22755;BME280;11544;42.020;23.094;2023-04-22T04:34:44;96919.38;;;10.95;90.34
22755;BME280;11544;42.020;23.094;2023-04-22T04:37:17;96917.56;;;11.58;88.69
22755;BME280;11544;42.020;23.094;2023-04-22T04:46:29;96924.25;;;11.64;85.55
22755;BME280;11544;42.020;23.094;2023-04-22T04:57:21;96940.53;;;11.09;90.69
22755;BME280;11544;42.020;23.094;2023-04-22T05:00:21;96949.72;;;10.97;92.84
22755;BME280;11544;42.020;23.094;2023-04-22T05:02:48;96948.09;;;11.15;93.68
22755;BME280;11544;42.020;23.094;2023-04-22T05:05:15;96949.28;;;11.08;91.96
22755;BME280;11544;42.020;23.094;2023-04-22T05:07:42;96950.91;;;10.89;91.15
22755;BME280;11544;42.020;23.094;2023-04-22T05:10:12;96948.81;;;10.98;92.52
22755;BME280;11544;42.020;23.094;2023-04-22T05:12:43;96955.47;;;11.06;91.92
22755;BME280;11544;42.020;23.094;2023-04-22T05:15:14;96956.03;;;10.92;91.57
22755;BME280;11544;42.020;23.094;2023-04-22T05:17:42;96956.59;;;11.20;90.60
22755;BME280;11544;42.020;23.094;2023-04-22T05:20:10;96943.66;;;11.58;87.37
22755;BME280;11544;42.020;23.094;2023-04-22T05:44:05;96930.75;;;11.95;76.03
22755;BME280;11544;42.020;23.094;2023-04-22T05:46:32;96928.63;;;12.77;73.16
22755;BME280;11544;42.020;23.094;2023-04-22T05:48:59;96927.72;;;12.78;75.28
22755;BME280;11544;42.020;23.094;2023-04-22T05:51:26;96925.16;;;12.59;74.38
22755;BME280;11544;42.020;23.094;2023-04-22T05:53:53;96935.69;;;12.75;75.57
22755;BME280;11544;42.020;23.094;2023-04-22T05:56:20;96943.50;;;12.21;77.76
22755;BME280;11544;42.020;23.094;2023-04-22T05:58:47;96941.03;;;12.91;75.76
22755;BME280;11544;42.020;23.094;2023-04-22T06:01:14;96934.97;;;13.08;72.73
22755;BME280;11544;42.020;23.094;2023-04-22T06:03:40;96934.88;;;12.92;71.93
22755;BME280;11544;42.020;23.094;2023-04-22T06:06:10;96928.50;;;12.61;73.41
22755;BME280;11544;42.020;23.094;2023-04-22T06:08:37;96931.50;;;13.07;73.48
22755;BME280;11544;42.020;23.094;2023-04-22T06:11:04;96934.19;;;13.75;70.70
22755;BME280;11544;42.020;23.094;2023-04-22T06:13:31;96935.66;;;13.46;68.76
22755;BME280;11544;42.020;23.094;2023-04-22T06:15:59;96933.44;;;13.39;67.77
22755;BME280;11544;42.020;23.094;2023-04-22T06:18:27;96943.25;;;13.35;69.77
22755;BME280;11544;42.020;23.094;2023-04-22T06:20:55;96944.81;;;13.20;69.09
22755;BME280;11544;42.020;23.094;2023-04-22T06:23:22;96947.91;;;13.46;70.16
22755;BME280;11544;42.020;23.094;2023-04-22T06:25:48;96946.88;;;12.96;72.82
22755;BME280;11544;42.020;23.094;2023-04-22T06:28:15;96943.22;;;14.35;70.26
22755;BME280;11544;42.020;23.094;2023-04-22T06:30:42;96938.03;;;14.97;63.75
22755;BME280;11544;42.020;23.094;2023-04-22T06:33:09;96934.50;;;14.18;65.04
22755;BME280;11544;42.020;23.094;2023-04-22T06:35:36;96936.88;;;14.39;65.43
22755;BME280;11544;42.020;23.094;2023-04-22T06:38:03;96936.19;;;14.83;63.01
22755;BME280;11544;42.020;23.094;2023-04-22T06:40:30;96934.44;;;14.68;63.87
22755;BME280;11544;42.020;23.094;2023-04-22T06:42:56;96923.50;;;15.21;61.78
22755;BME280;11544;42.020;23.094;2023-04-22T06:45:24;96928.50;;;15.26;62.61
22755;BME280;11544;42.020;23.094;2023-04-22T06:47:51;96930.72;;;15.02;61.03
22755;BME280;11544;42.020;23.094;2023-04-22T06:50:19;96922.72;;;15.64;61.30
22755;BME280;11544;42.020;23.094;2023-04-22T06:52:46;96931.53;;;15.63;59.41
22755;BME280;11544;42.020;23.094;2023-04-22T06:55:13;96925.66;;;16.17;67.19
22755;BME280;11544;42.020;23.094;2023-04-22T06:57:40;96919.06;;;17.20;63.11
22755;BME280;11544;42.020;23.094;2023-04-22T07:00:07;96921.16;;;16.19;57.22
22755;BME280;11544;42.020;23.094;2023-04-22T07:02:34;96913.53;;;16.97;58.62
22755;BME280;11544;42.020;23.094;2023-04-22T07:05:01;96922.38;;;15.70;57.01
22755;BME280;11544;42.020;23.094;2023-04-22T07:07:28;96919.25;;;17.04;55.04
22755;BME280;11544;42.020;23.094;2023-04-22T07:09:55;96918.78;;;17.75;55.49
22755;BME280;11544;42.020;23.094;2023-04-22T07:12:22;96914.47;;;17.74;51.35
22755;BME280;11544;42.020;23.094;2023-04-22T07:14:51;96913.16;;;16.62;53.94
22755;BME280;11544;42.020;23.094;2023-04-22T07:17:18;96920.53;;;16.42;56.10
22755;BME280;11544;42.020;23.094;2023-04-22T07:19:48;96910.56;;;17.42;52.72
22755;BME280;11544;42.020;23.094;2023-04-22T07:22:15;96910.78;;;17.39;51.28
22755;BME280;11544;42.020;23.094;2023-04-22T07:24:42;96908.59;;;17.05;52.89
22755;BME280;11544;42.020;23.094;2023-04-22T07:27:08;96918.75;;;16.43;52.63
22755;BME280;11544;42.020;23.094;2023-04-22T07:29:35;96917.72;;;18.66;50.48
22755;BME280;11544;42.020;23.094;2023-04-22T07:32:03;96913.34;;;17.91;51.75
22755;BME280;11544;42.020;23.094;2023-04-22T07:34:30;96911.91;;;18.11;51.73
22755;BME280;11544;42.020;23.094;2023-04-22T07:36:57;96916.41;;;17.98;49.43
22755;BME280;11544;42.020;23.094;2023-04-22T07:39:24;96916.59;;;17.69;49.08
22755;BME280;11544;42.020;23.094;2023-04-22T07:41:53;96909.94;;;17.51;50.31
22755;BME280;11544;42.020;23.094;2023-04-22T07:44:23;96910.44;;;17.18;50.52
22755;BME280;11544;42.020;23.094;2023-04-22T07:46:50;96911.81;;;17.49;49.81
22755;BME280;11544;42.020;23.094;2023-04-22T07:49:16;96908.34;;;17.61;49.90
22755;BME280;11544;42.020;23.094;2023-04-22T07:51:44;96907.63;;;17.46;50.56
22755;BME280;11544;42.020;23.094;2023-04-22T07:54:11;96902.66;;;17.80;49.55
22755;BME280;11544;42.020;23.094;2023-04-22T07:56:38;96892.72;;;18.09;48.17
22755;BME280;11544;42.020;23.094;2023-04-22T07:59:05;96898.97;;;18.08;50.51
22755;BME280;11544;42.020;23.094;2023-04-22T08:01:32;96880.50;;;18.69;49.42
22755;BME280;11544;42.020;23.094;2023-04-22T08:03:59;96885.81;;;18.56;49.29
22755;BME280;11544;42.020;23.094;2023-04-22T08:06:28;96876.13;;;19.63;47.06
22755;BME280;11544;42.020;23.094;2023-04-22T08:08:57;96877.56;;;19.56;47.78
22755;BME280;11544;42.020;23.094;2023-04-22T08:11:29;96875.16;;;19.06;47.65
22755;BME280;11544;42.020;23.094;2023-04-22T08:13:56;96876.09;;;18.94;49.39
22755;BME280;11544;42.020;23.094;2023-04-22T08:16:23;96864.19;;;19.23;49.63
22755;BME280;11544;42.020;23.094;2023-04-22T08:18:53;96867.34;;;19.51;46.88
22755;BME280;11544;42.020;23.094;2023-04-22T08:21:22;96860.28;;;19.05;46.97
22755;BME280;11544;42.020;23.094;2023-04-22T08:23:48;96857.91;;;19.24;47.50
22755;BME280;11544;42.020;23.094;2023-04-22T08:26:15;96861.53;;;19.70;47.13
22755;BME280;11544;42.020;23.094;2023-04-22T08:28:42;96853.91;;;20.22;45.88
22755;BME280;11544;42.020;23.094;2023-04-22T08:31:09;96840.63;;;20.56;47.08
22755;BME280;11544;42.020;23.094;2023-04-22T08:33:39;96847.94;;;19.97;44.97
22755;BME280;11544;42.020;23.094;2023-04-22T08:36:08;96856.91;;;20.17;46.22
22755;BME280;11544;42.020;23.094;2023-04-22T08:38:35;96852.94;;;19.55;45.19
22755;BME280;11544;42.020;23.094;2023-04-22T08:41:04;96853.22;;;20.20;44.10
22755;BME280;11544;42.020;23.094;2023-04-22T08:43:32;96848.59;;;20.33;44.01
22755;BME280;11544;42.020;23.094;2023-04-22T08:46:00;96841.19;;;20.48;45.13
22755;BME280;11544;42.020;23.094;2023-04-22T08:48:30;96836.97;;;20.68;45.28
22755;BME280;11544;42.020;23.094;2023-04-22T08:50:58;96831.09;;;20.53;43.09
22755;BME280;11544;42.020;23.094;2023-04-22T08:53:26;96831.94;;;20.65;42.91
22755;BME280;11544;42.020;23.094;2023-04-22T08:55:54;96823.00;;;20.98;44.57
22755;BME280;11544;42.020;23.094;2023-04-22T08:58:22;96836.97;;;21.42;42.40
22755;BME280;11544;42.020;23.094;2023-04-22T09:00:50;96824.81;;;21.40;38.50
22755;BME280;11544;42.020;23.094;2023-04-22T09:03:17;96812.41;;;21.19;39.25
22755;BME280;11544;42.020;23.094;2023-04-22T09:05:46;96815.94;;;21.29;39.07
22755;BME280;11544;42.020;23.094;2023-04-22T09:08:15;96816.06;;;20.65;37.89
22755;BME280;11544;42.020;23.094;2023-04-22T09:10:43;96802.25;;;20.82;39.24
22755;BME280;11544;42.020;23.094;2023-04-22T09:13:12;96805.22;;;21.10;38.65
22755;BME280;11544;42.020;23.094;2023-04-22T09:15:39;96804.47;;;21.71;36.84
22755;BME280;11544;42.020;23.094;2023-04-22T09:18:08;96804.94;;;21.34;35.94
22755;BME280;11544;42.020;23.094;2023-04-22T09:20:40;96796.19;;;21.12;36.44
22755;BME280;11544;42.020;23.094;2023-04-22T09:23:08;96791.13;;;21.09;37.07
22755;BME280;11544;42.020;23.094;2023-04-22T09:25:37;96784.91;;;21.72;37.89
22755;BME280;11544;42.020;23.094;2023-04-22T09:28:05;96775.13;;;22.13;38.07
22755;BME280;11544;42.020;23.094;2023-04-22T09:30:33;96779.13;;;21.47;38.27
22755;BME280;11544;42.020;23.094;2023-04-22T09:33:06;96762.53;;;22.15;36.59
22755;BME280;11544;42.020;23.094;2023-04-22T09:35:37;96767.84;;;22.05;36.98
22755;BME280;11544;42.020;23.094;2023-04-22T09:38:07;96765.38;;;21.73;35.93
22755;BME280;11544;42.020;23.094;2023-04-22T09:40:36;96764.53;;;21.72;35.98
22755;BME280;11544;42.020;23.094;2023-04-22T09:43:06;96754.84;;;21.92;38.29
22755;BME280;11544;42.020;23.094;2023-04-22T09:45:42;96750.47;;;21.82;35.95
22755;BME280;11544;42.020;23.094;2023-04-22T09:48:14;96748.78;;;22.50;34.68
22755;BME280;11544;42.020;23.094;2023-04-22T09:50:48;96743.97;;;22.05;32.08
22755;BME280;11544;42.020;23.094;2023-04-22T09:53:17;96747.41;;;21.86;33.10
22755;BME280;11544;42.020;23.094;2023-04-22T09:55:49;96747.84;;;21.51;35.27
22755;BME280;11544;42.020;23.094;2023-04-22T09:58:19;96726.31;;;21.85;35.17
22755;BME280;11544;42.020;23.094;2023-04-22T10:00:52;96732.13;;;21.28;35.71
22755;BME280;11544;42.020;23.094;2023-04-22T10:03:20;96727.88;;;21.47;37.59
22755;BME280;11544;42.020;23.094;2023-04-22T10:05:47;96717.41;;;22.05;34.82
22755;BME280;11544;42.020;23.094;2023-04-22T10:08:15;96716.47;;;21.04;33.27
22755;BME280;11544;42.020;23.094;2023-04-22T10:10:43;96703.56;;;21.82;32.96
22755;BME280;11544;42.020;23.094;2023-04-22T10:13:11;96695.19;;;21.96;32.93
22755;BME280;11544;42.020;23.094;2023-04-22T10:15:50;96700.09;;;22.11;32.80
22755;BME280;11544;42.020;23.094;2023-04-22T10:18:22;96693.81;;;22.02;32.79
22755;BME280;11544;42.020;23.094;2023-04-22T10:20:50;96692.09;;;21.82;34.42
22755;BME280;11544;42.020;23.094;2023-04-22T10:23:21;96689.31;;;21.83;34.43
22755;BME280;11544;42.020;23.094;2023-04-22T10:25:52;96679.66;;;21.82;34.38
22755;BME280;11544;42.020;23.094;2023-04-22T10:28:21;96669.69;;;22.25;32.38
22755;BME280;11544;42.020;23.094;2023-04-22T10:30:48;96674.63;;;21.69;31.82
22755;BME280;11544;42.020;23.094;2023-04-22T10:38:37;96675.19;;;21.83;33.35
22755;BME280;11544;42.020;23.094;2023-04-22T10:41:05;96663.03;;;21.70;31.99
22755;BME280;11544;42.020;23.094;2023-04-22T10:43:42;96653.13;;;21.72;32.52
22755;BME280;11544;42.020;23.094;2023-04-22T10:49:05;96655.78;;;21.72;31.42
22755;BME280;11544;42.020;23.094;2023-04-22T10:51:39;96653.03;;;21.84;30.31
22755;BME280;11544;42.020;23.094;2023-04-22T10:54:07;96651.47;;;22.20;29.76
22755;BME280;11544;42.020;23.094;2023-04-22T10:57:08;96653.47;;;21.08;29.56
22755;BME280;11544;42.020;23.094;2023-04-22T10:59:51;96643.50;;;21.71;29.13
22755;BME280;11544;42.020;23.094;2023-04-22T11:02:20;96650.41;;;22.23;28.71
22755;BME280;11544;42.020;23.094;2023-04-22T11:04:49;96643.38;;;22.51;28.44
22755;BME280;11544;42.020;23.094;2023-04-22T11:15:21;96639.06;;;22.50;28.82
22755;BME280;11544;42.020;23.094;2023-04-22T11:17:53;96635.84;;;22.17;28.61
22755;BME280;11544;42.020;23.094;2023-04-22T11:20:22;96638.47;;;21.68;27.51
22755;BME280;11544;42.020;23.094;2023-04-22T11:22:55;96628.41;;;21.52;28.10
22755;BME280;11544;42.020;23.094;2023-04-22T11:25:23;96650.34;;;20.93;30.48
22755;BME280;11544;42.020;23.094;2023-04-22T11:27:51;96641.53;;;21.64;31.03
22755;BME280;11544;42.020;23.094;2023-04-22T11:30:24;96639.34;;;22.17;28.26
22755;BME280;11544;42.020;23.094;2023-04-22T11:32:54;96642.81;;;22.18;28.71
22755;BME280;11544;42.020;23.094;2023-04-22T11:35:34;96638.09;;;22.41;29.68
22755;BME280;11544;42.020;23.094;2023-04-22T11:38:08;96634.97;;;22.65;28.55
22755;BME280;11544;42.020;23.094;2023-04-22T11:40:37;96631.38;;;22.56;29.73
22755;BME280;11544;42.020;23.094;2023-04-22T11:43:08;96640.47;;;22.34;28.16
22755;BME280;11544;42.020;23.094;2023-04-22T11:45:40;96631.81;;;22.23;29.76
22755;BME280;11544;42.020;23.094;2023-04-22T11:48:50;96626.66;;;22.21;29.30
22755;BME280;11544;42.020;23.094;2023-04-22T11:51:32;96616.97;;;22.20;29.57
22755;BME280;11544;42.020;23.094;2023-04-22T11:54:29;96627.91;;;22.27;28.56
22755;BME280;11544;42.020;23.094;2023-04-22T11:57:08;96632.00;;;21.11;31.04
22755;BME280;11544;42.020;23.094;2023-04-22T11:59:37;96635.31;;;20.72;35.16
22755;BME280;11544;42.020;23.094;2023-04-22T12:02:05;96637.63;;;20.24;36.67
22755;BME280;11544;42.020;23.094;2023-04-22T12:04:40;96621.00;;;19.80;36.38
22755;BME280;11544;42.020;23.094;2023-04-22T12:07:07;96637.19;;;20.19;36.83
22755;BME280;11544;42.020;23.094;2023-04-22T12:09:34;96635.09;;;20.85;36.08
22755;BME280;11544;42.020;23.094;2023-04-22T12:12:04;96632.97;;;21.41;35.86
22755;BME280;11544;42.020;23.094;2023-04-22T12:14:34;96627.66;;;21.00;35.11
22755;BME280;11544;42.020;23.094;2023-04-22T12:17:07;96650.69;;;21.09;35.81
22755;BME280;11544;42.020;23.094;2023-04-22T12:19:36;96637.66;;;20.66;35.49
22755;BME280;11544;42.020;23.094;2023-04-22T12:22:15;96645.63;;;20.97;35.31
22755;BME280;11544;42.020;23.094;2023-04-22T12:24:49;96639.91;;;21.01;35.48
22755;BME280;11544;42.020;23.094;2023-04-22T12:27:19;96634.28;;;21.25;35.38
22755;BME280;11544;42.020;23.094;2023-04-22T12:29:57;96638.91;;;20.92;35.83
22755;BME280;11544;42.020;23.094;2023-04-22T12:32:33;96624.69;;;21.34;34.76
22755;BME280;11544;42.020;23.094;2023-04-22T12:35:00;96613.63;;;21.60;34.39
22755;BME280;11544;42.020;23.094;2023-04-22T12:37:29;96623.00;;;21.73;33.81
22755;BME280;11544;42.020;23.094;2023-04-22T12:42:58;96616.41;;;21.68;33.33
22755;BME280;11544;42.020;23.094;2023-04-22T12:45:37;96613.31;;;21.43;32.85
22755;BME280;11544;42.020;23.094;2023-04-22T12:48:05;96617.44;;;21.36;32.97
22755;BME280;11544;42.020;23.094;2023-04-22T12:51:07;96598.41;;;22.20;32.08
22755;BME280;11544;42.020;23.094;2023-04-22T12:53:44;96610.16;;;21.98;32.63
22755;BME280;11544;42.020;23.094;2023-04-22T12:56:17;96619.06;;;21.77;32.32
22755;BME280;11544;42.020;23.094;2023-04-22T12:58:44;96619.44;;;21.44;32.20
22755;BME280;11544;42.020;23.094;2023-04-22T13:01:12;96611.41;;;21.24;31.30
22755;BME280;11544;42.020;23.094;2023-04-22T13:07:12;96610.97;;;21.60;32.59
22755;BME280;11544;42.020;23.094;2023-04-22T13:09:55;96607.78;;;21.85;33.22
22755;BME280;11544;42.020;23.094;2023-04-22T13:12:25;96615.41;;;21.49;32.71
22755;BME280;11544;42.020;23.094;2023-04-22T13:14:55;96612.78;;;21.59;32.91
22755;BME280;11544;42.020;23.094;2023-04-22T13:17:28;96608.09;;;21.32;33.59
22755;BME280;11544;42.020;23.094;2023-04-22T13:19:57;96605.66;;;21.50;33.79
22755;BME280;11544;42.020;23.094;2023-04-22T13:22:26;96601.88;;;21.43;33.08
22755;BME280;11544;42.020;23.094;2023-04-22T13:24:53;96599.41;;;21.20;33.44
22755;BME280;11544;42.020;23.094;2023-04-22T13:27:20;96594.94;;;21.21;34.04
22755;BME280;11544;42.020;23.094;2023-04-22T13:29:47;96590.44;;;21.11;33.63
22755;BME280;11544;42.020;23.094;2023-04-22T13:32:14;96594.38;;;21.17;34.22
22755;BME280;11544;42.020;23.094;2023-04-22T13:34:41;96599.00;;;21.25;33.40
22755;BME280;11544;42.020;23.094;2023-04-22T13:37:27;96593.63;;;21.46;33.02
22755;BME280;11544;42.020;23.094;2023-04-22T13:43:11;96591.69;;;20.98;33.78
22755;BME280;11544;42.020;23.094;2023-04-22T13:45:58;96600.41;;;20.58;33.12
22755;BME280;11544;42.020;23.094;2023-04-22T13:54:00;96604.28;;;21.15;33.48
22755;BME280;11544;42.020;23.094;2023-04-22T14:12:06;96613.03;;;21.06;34.48
22755;BME280;11544;42.020;23.094;2023-04-22T14:14:41;96614.31;;;20.81;36.71
22755;BME280;11544;42.020;23.094;2023-04-22T14:17:10;96615.34;;;20.89;37.18
22755;BME280;11544;42.020;23.094;2023-04-22T14:19:43;96622.75;;;20.96;37.41
22755;BME280;11544;42.020;23.094;2023-04-22T14:22:35;96619.38;;;20.84;36.32
22755;BME280;11544;42.020;23.094;2023-04-22T14:54:30;96654.78;;;19.76;37.96
22755;BME280;11544;42.020;23.094;2023-04-22T14:56:58;96660.78;;;19.67;38.24
22755;BME280;11544;42.020;23.094;2023-04-22T14:59:25;96658.28;;;19.65;38.07
22755;BME280;11544;42.020;23.094;2023-04-22T15:04:35;96673.22;;;19.10;39.08
22755;BME280;11544;42.020;23.094;2023-04-22T15:07:05;96673.94;;;19.23;39.42
22755;BME280;11544;42.020;23.094;2023-04-22T15:09:42;96668.06;;;19.09;40.24
22755;BME280;11544;42.020;23.094;2023-04-22T15:12:19;96672.50;;;19.08;40.51
22755;BME280;11544;42.020;23.094;2023-04-22T15:14:46;96674.19;;;18.98;40.01
22755;BME280;11544;42.020;23.094;2023-04-22T15:17:27;96680.19;;;19.00;40.66
22755;BME280;11544;42.020;23.094;2023-04-22T15:19:58;96683.28;;;18.94;41.58
22755;BME280;11544;42.020;23.094;2023-04-22T15:22:47;96681.50;;;18.94;41.63
22755;BME280;11544;42.020;23.094;2023-04-22T15:25:16;96693.00;;;18.82;42.83
22755;BME280;11544;42.020;23.094;2023-04-22T15:27:44;96687.88;;;19.14;42.36
22755;BME280;11544;42.020;23.094;2023-04-22T15:30:11;96690.38;;;18.82;42.81
22755;BME280;11544;42.020;23.094;2023-04-22T15:32:40;96690.38;;;18.93;42.87
22755;BME280;11544;42.020;23.094;2023-04-22T15:35:14;96690.84;;;18.87;43.05
22755;BME280;11544;42.020;23.094;2023-04-22T15:37:41;96694.03;;;18.68;43.01
22755;BME280;11544;42.020;23.094;2023-04-22T15:40:08;96698.72;;;18.65;43.30
22755;BME280;11544;42.020;23.094;2023-04-22T15:42:48;96701.34;;;18.65;44.21
22755;BME280;11544;42.020;23.094;2023-04-22T15:45:56;96705.06;;;18.62;45.14
22755;BME280;11544;42.020;23.094;2023-04-22T15:48:42;96713.19;;;18.48;44.32
22755;BME280;11544;42.020;23.094;2023-04-22T15:51:16;96723.69;;;18.36;44.30
22755;BME280;11544;42.020;23.094;2023-04-22T16:13:26;96741.25;;;17.76;46.00
22755;BME280;11544;42.020;23.094;2023-04-22T16:16:02;96753.00;;;17.47;45.30
22755;BME280;11544;42.020;23.094;2023-04-22T16:18:29;96760.69;;;17.24;46.80
22755;BME280;11544;42.020;23.094;2023-04-22T16:24:04;96768.81;;;16.56;49.01
22755;BME280;11544;42.020;23.094;2023-04-22T16:26:31;96774.69;;;16.34;50.12
22755;BME280;11544;42.020;23.094;2023-04-22T16:29:04;96794.66;;;16.36;50.43
22755;BME280;11544;42.020;23.094;2023-04-22T16:31:33;96799.78;;;16.25;50.57
22755;BME280;11544;42.020;23.094;2023-04-22T16:34:00;96813.44;;;16.17;50.91
22755;BME280;11544;42.020;23.094;2023-04-22T16:36:27;96818.47;;;15.93;52.05
22755;BME280;11544;42.020;23.094;2023-04-22T16:39:09;96812.69;;;16.15;52.19
22755;BME280;11544;42.020;23.094;2023-04-22T16:41:43;96810.84;;;16.03;52.56
22755;BME280;11544;42.020;23.094;2023-04-22T16:44:10;96806.63;;;16.00;52.77
22755;BME280;11544;42.020;23.094;2023-04-22T16:46:37;96805.25;;;15.80;53.67
22755;BME280;11544;42.020;23.094;2023-04-22T16:49:07;96810.81;;;15.76;53.91
22755;BME280;11544;42.020;23.094;2023-04-22T16:51:39;96806.38;;;15.62;54.39
22755;BME280;11544;42.020;23.094;2023-04-22T16:54:06;96810.13;;;15.86;54.61
22755;BME280;11544;42.020;23.094;2023-04-22T16:56:33;96822.31;;;15.44;55.24
22755;BME280;11544;42.020;23.094;2023-04-22T16:59:05;96830.38;;;15.41;55.96
22755;BME280;11544;42.020;23.094;2023-04-22T17:01:32;96838.53;;;15.22;56.18
22755;BME280;11544;42.020;23.094;2023-04-22T17:04:00;96838.88;;;15.02;57.39
22755;BME280;11544;42.020;23.094;2023-04-22T17:06:29;96842.81;;;15.09;57.78
22755;BME280;11544;42.020;23.094;2023-04-22T17:08:56;96854.63;;;15.02;58.37